createdAt,value
2023-05-31T00:02:43.504Z,12.49
2023-05-31T00:07:45.368Z,12.36
2023-05-31T00:12:47.146Z,12.29
2023-05-31T00:17:50.691Z,12.60
2023-05-31T00:22:52.869Z,12.37
2023-05-31T00:27:56.253Z,12.49
2023-05-31T00:32:58.066Z,12.27
2023-05-31T00:38:06.159Z,12.37
2023-05-31T00:43:07.914Z,12.30
2023-05-31T00:48:09.752Z,11.93
2023-05-31T00:53:11.830Z,11.85
2023-05-31T00:58:13.704Z,11.78
2023-05-31T01:03:16.732Z,11.37
2023-05-31T01:08:18.739Z,11.51
2023-05-31T01:13:36.556Z,11.46
2023-05-31T01:18:50.459Z,11.51
2023-05-31T01:23:55.183Z,11.41
2023-05-31T01:29:02.160Z,11.30
2023-05-31T01:34:05.528Z,11.25
2023-05-31T01:39:08.575Z,11.36
2023-05-31T01:44:12.687Z,11.38
2023-05-31T01:49:14.622Z,11.40
2023-05-31T01:54:16.655Z,11.11
2023-05-31T01:59:19.665Z,11.05
2023-05-31T02:04:21.485Z,10.94
2023-05-31T02:09:23.226Z,10.90
2023-05-31T02:14:24.933Z,10.75
2023-05-31T02:19:26.881Z,10.46
2023-05-31T02:24:29.564Z,10.47
2023-05-31T02:29:31.300Z,10.37
2023-05-31T02:34:34.660Z,10.45
2023-05-31T02:39:36.552Z,10.47
2023-05-31T02:44:38.394Z,10.44
2023-05-31T02:49:41.113Z,10.07
2023-05-31T02:54:43.161Z,10.33
2023-05-31T02:59:50.422Z,10.41
2023-05-31T03:04:54.661Z,10.25
2023-05-31T03:09:57.741Z,10.04
2023-05-31T03:14:59.490Z,9.99
2023-05-31T03:20:01.367Z,10.19
2023-05-31T03:25:04.994Z,10.01
2023-05-31T03:30:08.140Z,9.74
2023-05-31T03:35:18.300Z,9.84
2023-05-31T03:40:21.355Z,9.86
2023-05-31T03:45:23.344Z,10.01
2023-05-31T03:50:27.912Z,10.04
2023-05-31T03:55:30.005Z,10.16
2023-05-31T04:00:32.512Z,10.20
2023-05-31T04:05:34.690Z,10.29
2023-05-31T04:10:36.534Z,10.44
2023-05-31T04:15:38.305Z,10.64
2023-05-31T04:20:40.326Z,10.75
2023-05-31T04:25:42.363Z,10.87
2023-05-31T04:30:45.677Z,11.08
2023-05-31T04:35:49.212Z,11.22
2023-05-31T04:40:55.272Z,11.33
2023-05-31T04:45:57.034Z,11.50
2023-05-31T04:51:00.288Z,11.77
2023-05-31T04:56:05.494Z,11.73
2023-05-31T05:01:08.749Z,11.81
2023-05-31T05:06:19.028Z,11.92
2023-05-31T05:11:20.726Z,12.06
2023-05-31T05:16:22.572Z,12.42
2023-05-31T05:21:25.034Z,12.73
2023-05-31T05:26:27.054Z,13.05
2023-05-31T05:31:31.466Z,13.65
2023-05-31T05:36:34.925Z,14.10
2023-05-31T05:41:37.094Z,15.12
2023-05-31T05:46:40.402Z,15.27
2023-05-31T05:51:42.693Z,15.58
2023-05-31T05:56:45.169Z,15.88
2023-05-31T06:01:48.172Z,16.51
2023-05-31T06:06:52.668Z,17.08
2023-05-31T06:11:54.312Z,17.64
2023-05-31T06:16:58.318Z,17.98
2023-05-31T06:22:01.113Z,17.60
2023-05-31T06:27:03.925Z,18.36
2023-05-31T06:32:10.072Z,18.35
2023-05-31T06:37:16.117Z,18.56
2023-05-31T06:42:18.520Z,18.77
2023-05-31T06:47:57.467Z,19.24
2023-05-31T06:53:28.313Z,19.80
2023-05-31T06:58:43.838Z,20.05
2023-05-31T07:03:45.692Z,20.47
2023-05-31T07:08:47.811Z,20.53
2023-05-31T07:14:06.565Z,20.90
2023-05-31T07:19:08.978Z,20.81
2023-05-31T07:24:13.213Z,21.31
2023-05-31T07:29:14.954Z,21.56
2023-05-31T07:34:16.662Z,22.13
2023-05-31T07:39:18.700Z,22.13
2023-05-31T07:44:20.978Z,22.64
2023-05-31T07:49:22.712Z,23.27
2023-05-31T07:54:24.558Z,23.38
2023-05-31T07:59:26.742Z,23.19
2023-05-31T08:04:28.783Z,23.69
2023-05-31T08:09:30.761Z,23.33
2023-05-31T08:14:32.514Z,23.05
2023-05-31T08:19:34.284Z,22.91
2023-05-31T08:24:36.143Z,24.18
2023-05-31T08:29:37.846Z,24.50
2023-05-31T08:34:39.595Z,24.45
2023-05-31T08:39:41.411Z,25.02
2023-05-31T08:44:44.041Z,24.90
2023-05-31T08:49:46.660Z,25.23
2023-05-31T08:54:49.812Z,25.67
2023-05-31T08:59:52.923Z,25.18
2023-05-31T09:04:57.030Z,25.14
2023-05-31T09:09:58.751Z,25.06
2023-05-31T09:15:00.943Z,24.95
2023-05-31T09:20:04.658Z,25.35
2023-05-31T09:25:08.141Z,24.86
2023-05-31T09:30:12.206Z,24.86
2023-05-31T09:35:16.376Z,24.95
2023-05-31T09:40:25.952Z,25.88
2023-05-31T09:45:29.618Z,25.99
2023-05-31T09:50:31.537Z,26.26
2023-05-31T09:55:43.465Z,25.99
2023-05-31T10:00:48.882Z,26.31
2023-05-31T10:05:50.672Z,25.89
2023-05-31T10:10:55.621Z,25.98
2023-05-31T10:15:59.142Z,26.40
2023-05-31T10:21:08.174Z,25.52
2023-05-31T10:26:19.483Z,26.12
2023-05-31T10:31:24.329Z,26.54
2023-05-31T10:36:26.245Z,27.13
2023-05-31T10:41:34.668Z,27.00
2023-05-31T10:46:41.488Z,27.37
2023-05-31T10:51:46.479Z,27.11
2023-05-31T10:57:00.439Z,27.33
2023-05-31T11:02:09.193Z,27.00
2023-05-31T11:07:23.354Z,27.53
2023-05-31T11:12:36.750Z,27.85
2023-05-31T11:17:52.534Z,27.16
2023-05-31T11:23:20.228Z,26.79
2023-05-31T11:28:22.274Z,26.87
2023-05-31T11:33:24.369Z,26.86
2023-05-31T11:38:26.153Z,27.39
2023-05-31T11:43:28.049Z,27.24
2023-05-31T11:48:40.804Z,27.05
2023-05-31T11:53:42.606Z,27.17
2023-05-31T11:58:47.975Z,27.82
2023-05-31T12:03:49.609Z,27.61
2023-05-31T12:08:53.255Z,26.89
2023-05-31T12:13:58.692Z,27.18
2023-05-31T12:19:00.467Z,27.23
2023-05-31T12:24:12.434Z,27.38
2023-05-31T12:29:14.460Z,27.76
2023-05-31T12:34:19.188Z,27.42
2023-05-31T12:39:22.933Z,27.57
2023-05-31T12:44:24.680Z,27.27
2023-05-31T12:49:28.987Z,26.82
2023-05-31T12:54:35.265Z,26.40
2023-05-31T12:59:38.744Z,26.62
2023-05-31T13:04:40.457Z,27.07
2023-05-31T13:09:42.139Z,27.20
2023-05-31T13:14:44.831Z,27.46
2023-05-31T13:19:53.371Z,26.95
2023-05-31T13:25:05.042Z,27.42
2023-05-31T13:30:08.116Z,27.19
2023-05-31T13:35:11.133Z,27.28
2023-05-31T13:40:13.096Z,27.75
2023-05-31T13:45:15.304Z,27.24
2023-05-31T13:50:17.161Z,27.33
2023-05-31T13:55:18.880Z,27.16
2023-05-31T14:00:20.690Z,27.01
2023-05-31T14:05:22.435Z,26.95
2023-05-31T14:10:24.743Z,27.15
2023-05-31T14:15:26.449Z,26.83
2023-05-31T14:20:28.528Z,26.88
2023-05-31T14:25:31.266Z,27.22
2023-05-31T14:30:33.086Z,27.08
2023-05-31T14:35:34.878Z,27.33
2023-05-31T14:40:37.107Z,27.31
2023-05-31T14:45:38.960Z,27.28
2023-05-31T14:50:41.970Z,27.20
2023-05-31T14:55:43.685Z,27.64
2023-05-31T15:00:45.458Z,27.70
2023-05-31T15:05:47.160Z,28.60
2023-05-31T15:10:49.075Z,27.91
2023-05-31T15:15:50.905Z,28.21
2023-05-31T15:20:52.954Z,27.90
2023-05-31T15:25:54.762Z,27.72
2023-05-31T15:30:56.564Z,28.34
2023-05-31T15:35:58.382Z,28.28
2023-05-31T15:41:00.441Z,28.57
2023-05-31T15:46:02.339Z,29.21
2023-05-31T15:51:04.471Z,29.09
2023-05-31T15:56:06.237Z,28.19
2023-05-31T16:01:08.053Z,27.63
2023-05-31T16:06:09.789Z,28.11
2023-05-31T16:11:11.572Z,27.58
2023-05-31T16:16:14.670Z,26.96
2023-05-31T16:21:17.665Z,27.14
2023-05-31T16:26:19.464Z,26.99
2023-05-31T16:31:22.070Z,26.84
2023-05-31T16:36:24.501Z,26.17
2023-05-31T16:41:26.450Z,25.98
2023-05-31T16:46:28.225Z,25.90
2023-05-31T16:51:30.301Z,25.92
2023-05-31T16:56:32.087Z,25.48
2023-05-31T17:01:34.741Z,25.59
2023-05-31T17:06:37.707Z,25.21
2023-05-31T17:11:40.114Z,25.11
2023-05-31T17:16:41.823Z,24.87
2023-05-31T17:21:43.913Z,24.73
2023-05-31T17:26:48.379Z,24.56
2023-05-31T17:31:50.315Z,24.30
2023-05-31T17:36:52.015Z,24.44
2023-05-31T17:41:53.681Z,24.35
2023-05-31T17:46:56.048Z,24.47
2023-05-31T17:51:57.790Z,24.42
2023-05-31T17:56:59.523Z,24.16
2023-05-31T18:02:01.242Z,24.11
2023-05-31T18:07:04.454Z,24.27
2023-05-31T18:12:07.117Z,23.92
2023-05-31T18:17:08.818Z,23.76
2023-05-31T18:22:10.652Z,23.76
2023-05-31T18:27:14.267Z,23.38
2023-05-31T18:32:18.382Z,23.54
2023-05-31T18:37:22.705Z,23.41
2023-05-31T18:42:24.379Z,23.24
2023-05-31T18:47:28.499Z,23.06
2023-05-31T18:52:30.436Z,22.90
2023-05-31T18:57:33.232Z,22.78
2023-05-31T19:02:36.358Z,22.37
2023-05-31T19:07:38.150Z,22.15
2023-05-31T19:12:39.939Z,21.95
2023-05-31T19:17:43.435Z,21.96
2023-05-31T19:22:51.288Z,21.74
2023-05-31T19:27:53.213Z,21.40
2023-05-31T19:32:55.032Z,21.10
2023-05-31T19:37:56.849Z,20.83
2023-05-31T19:42:58.696Z,20.46
2023-05-31T19:48:00.716Z,20.36
2023-05-31T19:53:03.012Z,20.09
2023-05-31T19:58:04.799Z,19.88
2023-05-31T20:03:06.972Z,19.63
2023-05-31T20:08:10.438Z,19.64
2023-05-31T20:13:13.772Z,19.54
2023-05-31T20:18:16.502Z,19.52
2023-05-31T20:23:18.368Z,19.26
2023-05-31T20:28:22.899Z,19.28
2023-05-31T20:33:27.490Z,19.05
2023-05-31T20:38:31.264Z,18.84
2023-05-31T20:43:36.128Z,18.82
2023-05-31T20:48:41.167Z,18.46
2023-05-31T20:53:45.497Z,18.79
2023-05-31T20:58:50.697Z,18.66
2023-05-31T21:03:52.899Z,18.76
2023-05-31T21:08:56.548Z,18.65
2023-05-31T21:13:58.434Z,18.42
2023-05-31T21:19:00.145Z,17.80
2023-05-31T21:24:02.142Z,17.73
2023-05-31T21:29:03.826Z,17.68
2023-05-31T21:34:06.758Z,17.89
2023-05-31T21:39:08.495Z,17.57
2023-05-31T21:44:10.407Z,17.51
2023-05-31T21:49:12.515Z,17.31
2023-05-31T21:54:14.431Z,17.21
2023-05-31T21:59:16.263Z,17.16
2023-05-31T22:04:18.172Z,17.10
2023-05-31T22:09:20.005Z,16.95
2023-05-31T22:14:21.696Z,17.00
2023-05-31T22:19:26.776Z,16.87
2023-05-31T22:24:28.529Z,16.93
2023-05-31T22:29:30.487Z,16.94
2023-05-31T22:34:32.219Z,16.89
2023-05-31T22:39:33.973Z,16.60
2023-05-31T22:44:35.736Z,16.32
2023-05-31T22:49:37.616Z,16.23
2023-05-31T22:54:39.381Z,16.04
2023-05-31T22:59:41.264Z,15.91
2023-05-31T23:04:44.366Z,15.96
2023-05-31T23:09:46.684Z,15.83
2023-05-31T23:14:48.442Z,15.84
2023-05-31T23:19:52.383Z,15.76
2023-05-31T23:24:54.094Z,15.64
2023-05-31T23:29:55.926Z,15.52
2023-05-31T23:34:57.847Z,15.28
2023-05-31T23:39:59.609Z,15.15
2023-05-31T23:45:01.782Z,14.97
2023-05-31T23:50:03.941Z,14.87
2023-05-31T23:55:06.724Z,14.74
